A- A+ FrançaisEnglishEspañol中国

le plus proche LFDJ Pamiers-Les-PujolsLFBT Tarbes-Lourdes-PyrénéesLFRW Avranches-Le-Val-St-Pere LFRF Granville

manche à air

La météo aéronautique pour les pilotes, la préparation du vol avec les METAR (METeorological Aerodrome Report, message d'observation des conditions météorologiques pour l'aviation) et Les TAF (Terminal Aerodrome Forecast : message de prévision à court terme des conditions météorologiques pour l'aviation). Et les autres ressources comme les VAC (Visual Approch Chart) et les NOTAM (Notice To Airman) pour préprer les vols.

Aéroport Bejaia Soummam (Algérie) / OACI DAAE/ IATA BJA

L'altitude de l'aéroport Bejaia Soummam est de 6 m=20 ft. Il est situé à proximité de Béjaïa (Algérie). La météo générale à 5 jours est disponible pour Bejaia situé à 5 km.

METAR de l'aéroport Bejaia Soummam - DAAE

DAAE 280500Z 24009KT CAVOK 09/05 Q1024

Décodage du METAR de l'aéroport Bejaia Soummam (DZ)

METAR émis par DAAE le mardi 28 janvier 2020 à 05:00 heure TU. Attention ce METAR est obsolète car il a été émis il y a 6 heure et 9 minutes.

La visibilité est de supérieure à 10 km=supérieure à 6.2 sm.

La température est de 9°C=48 °F et le point rosée est de 5°C=41 °F . Ce qui correspond à 76% d'humidité relative.

Le QNH est de 1024 hPa=30.24 inHg

Vent de 9 kt=17 km/h, orienté à 240°.

Pas de nuages.

TAF de l'aéroport Bejaia Soummam - DAAE

DAAE 272300Z 2800/2824 19008KT 9999 FEW020 PROB30 TEMPO 2800/2808 2000 BR BKN008 BECMG 2810/2812 32012KT PROB30 TEMPO 2812/2818 FEW020TCU BECMG 2818/2820 18008KT

DAAE 272300Z 2800/2824 19008KT 9999 quelques nuages à 020 probabilité de 30% d'avoir temporairement 2800/2808 2000 brume couverture nuageuse fragmentée à 008 devenant 2810/2812 32012KT probabilité de 30% d'avoir temporairement 2812/2818 quelques nuages à 020TCU devenant 2818/2820 18008KT

Aéroport à proximité de Bejaia Soummam

Météo générale à 5 jours à Bejaia (5 km)DAAS Aéroport Setif Ain Arnat (64 km)DAAV Aéroport Jijell Taher (72 km)DAAM Aéroport Telergma (134 km)DABC Aéroport Constantine Ain El Bey (147 km)DABT Aéroport Batna (154 km)DAAG Aéroport Alger Houuari Boumediene (165 km)

Vue aérienne de l'aéroport Bejaia Soummam

NOTAM de l'aéroport Bejaia Soummam

Les NOTAM sont fournis sans aucune garantie de leur actualité. Le pilote est le seul responsable de la vérification de sa validité avant de l'utiliser opérationnellement pour préparer un vol ou l'utiliser lors de sa navigation.

NOTAM Firefighting and rescue (à partir du mercredi 7 septembre 2005 à 14:00)

B0343/05 NOTAMR B0308/05
Q) DAAA/QFFCH/IV/BO/A/000/999/
A) DAAE B) 0509071400 C) 0510071400EST
E) FIRE FIGHTING AND RESCUE CHANGED TO CAT 06.)
DUPE DUPE
CREATED: 07 Sep 2005 16:18:00
SOURCE: DAAAYNYX

Sources des données